Карточка аэропорта USSS

Внимание!
Информация на этой странице в стадии наполнения.
Если вы не увидели какой-то информации, или заметили неточность - пожалуйста сообщите нам!
Спасибо!
Команда RU-STAFF
Название аэропортаКольцово
Название аэропорта (англ.)Koltsovo
Превышение766 ft. (233.5 m.)
Координаты56°44.586', 60°48.186'
Высота перехода4000ft
Эшелон переходаQNH>=1013hPa:FL50; QNH 1013hPa-977hPa:FL60; QNH<=977hpa:FL70
Коды ответчика5520-5557
Зона ОрВДЕкатеринбург РПИ (USSV)
Данные METARUSSS 122100Z 35005MPS 320V020 3500 -DZ OVC004 14/14 Q1009 R08L/220050 NOSIG RMK QFE737/0983
Проноз погоды (TAF)USSS 121955Z 1221/1321 36003G14MPS 5000 -SHRA BKN004 BKN011CB TEMPO 1221/1304 -TSRA BKN003 BKN011CB FM130400 02008G18MPS 9999 BKN016CB TEMPO 1304/1318 -TSRAGR
NOTAMshow/hide NOTAM
AWOS   TABLE

Информация о ВПП

ВПП Длина ВПП (м.) Покрытие Курс ВПП Частота ILS
26L3026Бетон259109.5
26R3004Асфальтобетон255110.5
08R3026Бетон79109.9
08L3004Асфальтобетон75111.7

Диспетчерские позиции

Позывной Наименование органа УВД Частота
USSS_ATIS_APPКольцово АТИС127.850
USSV_FSS_CTRКольцово Транзит131.900
USSS_R_APPКольцово-Круг118.7
USSS_APPКольцово-Подход125.9
USSS_GNDКольцово-Руление119.0
USSS_TWRКольцово-Старт124.3
USSSFM1Машина сопровождения119.000



Спутниковое изображение